sensor_id;sensor_type;location;lat;lon;timestamp;temperature;humidity
12384;DHT22;6256;63.808;20.336;2024-01-11T00:02:23;1.70;99.90
12384;DHT22;6256;63.808;20.336;2024-01-11T00:04:50;1.70;99.90
12384;DHT22;6256;63.808;20.336;2024-01-11T00:07:16;1.70;99.90
12384;DHT22;6256;63.808;20.336;2024-01-11T00:09:42;1.70;99.90
12384;DHT22;6256;63.808;20.336;2024-01-11T00:12:08;1.70;99.90
12384;DHT22;6256;63.808;20.336;2024-01-11T00:14:35;1.70;99.90
12384;DHT22;6256;63.808;20.336;2024-01-11T00:17:01;1.60;99.90
12384;DHT22;6256;63.808;20.336;2024-01-11T00:19:27;1.60;99.90
12384;DHT22;6256;63.808;20.336;2024-01-11T00:21:52;1.60;99.90
12384;DHT22;6256;63.808;20.336;2024-01-11T00:24:18;1.60;99.90
12384;DHT22;6256;63.808;20.336;2024-01-11T00:26:44;1.60;99.90
12384;DHT22;6256;63.808;20.336;2024-01-11T00:29:10;1.50;99.90
12384;DHT22;6256;63.808;20.336;2024-01-11T00:31:35;1.60;99.90
12384;DHT22;6256;63.808;20.336;2024-01-11T00:34:02;1.50;99.90
12384;DHT22;6256;63.808;20.336;2024-01-11T00:36:28;1.50;99.90
12384;DHT22;6256;63.808;20.336;2024-01-11T00:38:54;1.40;99.90
12384;DHT22;6256;63.808;20.336;2024-01-11T00:41:20;1.40;99.90
12384;DHT22;6256;63.808;20.336;2024-01-11T00:43:46;1.40;99.90
12384;DHT22;6256;63.808;20.336;2024-01-11T00:46:11;1.50;99.90
12384;DHT22;6256;63.808;20.336;2024-01-11T00:48:37;1.50;99.90
12384;DHT22;6256;63.808;20.336;2024-01-11T00:51:06;1.50;99.90
12384;DHT22;6256;63.808;20.336;2024-01-11T00:53:32;1.40;99.90
12384;DHT22;6256;63.808;20.336;2024-01-11T00:56:01;1.40;99.90
12384;DHT22;6256;63.808;20.336;2024-01-11T00:58:27;1.30;99.90
12384;DHT22;6256;63.808;20.336;2024-01-11T01:00:53;1.30;99.90
12384;DHT22;6256;63.808;20.336;2024-01-11T01:03:20;1.30;99.90
12384;DHT22;6256;63.808;20.336;2024-01-11T01:05:46;1.40;99.90
12384;DHT22;6256;63.808;20.336;2024-01-11T01:08:12;1.40;99.90
12384;DHT22;6256;63.808;20.336;2024-01-11T01:10:38;1.30;99.90
12384;DHT22;6256;63.808;20.336;2024-01-11T01:13:04;1.30;99.90
12384;DHT22;6256;63.808;20.336;2024-01-11T01:15:29;1.20;99.90
12384;DHT22;6256;63.808;20.336;2024-01-11T01:17:55;1.10;99.90
12384;DHT22;6256;63.808;20.336;2024-01-11T01:20:22;1.10;99.90
12384;DHT22;6256;63.808;20.336;2024-01-11T01:22:47;1.00;99.90
12384;DHT22;6256;63.808;20.336;2024-01-11T01:25:13;0.90;99.90
12384;DHT22;6256;63.808;20.336;2024-01-11T01:27:39;0.90;99.90
12384;DHT22;6256;63.808;20.336;2024-01-11T01:30:05;0.90;99.90
12384;DHT22;6256;63.808;20.336;2024-01-11T01:32:32;0.90;99.90
12384;DHT22;6256;63.808;20.336;2024-01-11T01:34:58;0.90;99.90
12384;DHT22;6256;63.808;20.336;2024-01-11T01:37:23;0.90;99.90
12384;DHT22;6256;63.808;20.336;2024-01-11T01:39:49;0.80;99.90
12384;DHT22;6256;63.808;20.336;2024-01-11T01:42:15;0.80;99.90
12384;DHT22;6256;63.808;20.336;2024-01-11T01:44:41;0.90;99.90
12384;DHT22;6256;63.808;20.336;2024-01-11T01:47:08;0.90;99.90
12384;DHT22;6256;63.808;20.336;2024-01-11T01:49:36;0.90;99.90
12384;DHT22;6256;63.808;20.336;2024-01-11T01:52:06;0.90;99.90
12384;DHT22;6256;63.808;20.336;2024-01-11T01:54:33;1.00;99.90
12384;DHT22;6256;63.808;20.336;2024-01-11T01:56:59;1.00;99.90
12384;DHT22;6256;63.808;20.336;2024-01-11T01:59:26;1.10;99.90
12384;DHT22;6256;63.808;20.336;2024-01-11T02:01:52;1.00;99.90
12384;DHT22;6256;63.808;20.336;2024-01-11T02:04:19;1.00;99.90
12384;DHT22;6256;63.808;20.336;2024-01-11T02:06:46;1.00;99.90
12384;DHT22;6256;63.808;20.336;2024-01-11T02:09:13;1.10;99.90
12384;DHT22;6256;63.808;20.336;2024-01-11T02:11:40;1.00;99.90
12384;DHT22;6256;63.808;20.336;2024-01-11T02:14:07;1.00;99.90
12384;DHT22;6256;63.808;20.336;2024-01-11T02:16:33;1.00;99.90
12384;DHT22;6256;63.808;20.336;2024-01-11T02:18:58;1.00;99.90
12384;DHT22;6256;63.808;20.336;2024-01-11T02:21:25;0.90;99.90
12384;DHT22;6256;63.808;20.336;2024-01-11T02:24:06;0.80;99.90
12384;DHT22;6256;63.808;20.336;2024-01-11T02:26:32;0.70;99.90
12384;DHT22;6256;63.808;20.336;2024-01-11T02:28:59;0.70;99.90
12384;DHT22;6256;63.808;20.336;2024-01-11T02:31:25;0.70;99.90
12384;DHT22;6256;63.808;20.336;2024-01-11T02:33:54;0.60;99.90
12384;DHT22;6256;63.808;20.336;2024-01-11T02:36:21;0.60;99.90
12384;DHT22;6256;63.808;20.336;2024-01-11T02:38:48;0.60;99.90
12384;DHT22;6256;63.808;20.336;2024-01-11T02:41:16;0.70;99.90
12384;DHT22;6256;63.808;20.336;2024-01-11T02:43:48;0.70;99.90
12384;DHT22;6256;63.808;20.336;2024-01-11T02:46:15;0.60;99.90
12384;DHT22;6256;63.808;20.336;2024-01-11T02:48:41;0.70;99.90
12384;DHT22;6256;63.808;20.336;2024-01-11T02:51:10;0.70;99.90
12384;DHT22;6256;63.808;20.336;2024-01-11T02:53:35;0.70;99.90
12384;DHT22;6256;63.808;20.336;2024-01-11T02:56:02;0.70;99.90
12384;DHT22;6256;63.808;20.336;2024-01-11T02:58:27;0.80;99.90
12384;DHT22;6256;63.808;20.336;2024-01-11T03:00:53;0.80;99.90
12384;DHT22;6256;63.808;20.336;2024-01-11T03:03:19;0.80;99.90
12384;DHT22;6256;63.808;20.336;2024-01-11T03:05:44;0.90;99.90
12384;DHT22;6256;63.808;20.336;2024-01-11T03:08:10;0.80;99.90
12384;DHT22;6256;63.808;20.336;2024-01-11T03:10:39;0.80;99.90
12384;DHT22;6256;63.808;20.336;2024-01-11T03:13:06;0.70;99.90
12384;DHT22;6256;63.808;20.336;2024-01-11T03:15:33;0.70;99.90
12384;DHT22;6256;63.808;20.336;2024-01-11T03:17:59;0.70;99.90
12384;DHT22;6256;63.808;20.336;2024-01-11T03:20:24;0.70;99.90
12384;DHT22;6256;63.808;20.336;2024-01-11T03:22:53;0.70;99.90
12384;DHT22;6256;63.808;20.336;2024-01-11T03:25:19;0.60;99.90
12384;DHT22;6256;63.808;20.336;2024-01-11T03:27:45;0.50;99.90
12384;DHT22;6256;63.808;20.336;2024-01-11T03:30:12;0.50;99.90
12384;DHT22;6256;63.808;20.336;2024-01-11T03:32:38;0.50;99.90
12384;DHT22;6256;63.808;20.336;2024-01-11T03:35:08;0.50;99.90
12384;DHT22;6256;63.808;20.336;2024-01-11T03:37:33;0.50;99.90
12384;DHT22;6256;63.808;20.336;2024-01-11T03:40:00;0.50;99.90
12384;DHT22;6256;63.808;20.336;2024-01-11T03:42:26;0.50;99.90
12384;DHT22;6256;63.808;20.336;2024-01-11T03:44:51;0.40;99.90
12384;DHT22;6256;63.808;20.336;2024-01-11T03:47:17;0.40;99.90
12384;DHT22;6256;63.808;20.336;2024-01-11T03:49:42;0.40;99.90
12384;DHT22;6256;63.808;20.336;2024-01-11T03:52:08;0.40;99.90
12384;DHT22;6256;63.808;20.336;2024-01-11T03:54:34;0.40;99.90
12384;DHT22;6256;63.808;20.336;2024-01-11T03:56:59;0.40;99.90
12384;DHT22;6256;63.808;20.336;2024-01-11T03:59:25;0.40;99.90
12384;DHT22;6256;63.808;20.336;2024-01-11T04:01:51;0.40;99.90
12384;DHT22;6256;63.808;20.336;2024-01-11T04:04:18;0.40;99.90
12384;DHT22;6256;63.808;20.336;2024-01-11T04:06:44;0.40;99.90
12384;DHT22;6256;63.808;20.336;2024-01-11T04:09:10;0.40;99.90
12384;DHT22;6256;63.808;20.336;2024-01-11T04:11:36;0.30;99.90
12384;DHT22;6256;63.808;20.336;2024-01-11T04:14:02;0.40;99.90
12384;DHT22;6256;63.808;20.336;2024-01-11T04:16:27;0.30;99.90
12384;DHT22;6256;63.808;20.336;2024-01-11T04:18:53;0.30;99.90
12384;DHT22;6256;63.808;20.336;2024-01-11T04:21:25;0.30;99.90
12384;DHT22;6256;63.808;20.336;2024-01-11T04:23:55;0.30;99.90
12384;DHT22;6256;63.808;20.336;2024-01-11T04:26:21;0.20;99.90
12384;DHT22;6256;63.808;20.336;2024-01-11T04:28:47;0.20;99.90
12384;DHT22;6256;63.808;20.336;2024-01-11T04:31:14;0.20;99.90
12384;DHT22;6256;63.808;20.336;2024-01-11T04:33:41;0.10;99.90
12384;DHT22;6256;63.808;20.336;2024-01-11T04:36:08;0.10;99.90
12384;DHT22;6256;63.808;20.336;2024-01-11T04:38:34;0.10;99.90
12384;DHT22;6256;63.808;20.336;2024-01-11T04:41:00;0.00;99.90
12384;DHT22;6256;63.808;20.336;2024-01-11T04:43:25;0.00;99.90
12384;DHT22;6256;63.808;20.336;2024-01-11T04:45:51;0.10;99.90
12384;DHT22;6256;63.808;20.336;2024-01-11T04:48:17;-0.10;99.90
12384;DHT22;6256;63.808;20.336;2024-01-11T04:50:44;-0.10;99.90
12384;DHT22;6256;63.808;20.336;2024-01-11T04:53:10;-0.10;99.90
12384;DHT22;6256;63.808;20.336;2024-01-11T04:55:36;-0.10;99.90
12384;DHT22;6256;63.808;20.336;2024-01-11T04:58:02;-0.20;99.90
12384;DHT22;6256;63.808;20.336;2024-01-11T05:00:28;-0.20;99.90
12384;DHT22;6256;63.808;20.336;2024-01-11T05:02:54;-0.20;99.90
12384;DHT22;6256;63.808;20.336;2024-01-11T05:05:20;-0.20;99.90
12384;DHT22;6256;63.808;20.336;2024-01-11T05:07:46;-0.20;99.90
12384;DHT22;6256;63.808;20.336;2024-01-11T05:10:12;-0.20;99.90
12384;DHT22;6256;63.808;20.336;2024-01-11T05:12:37;-0.20;99.90
12384;DHT22;6256;63.808;20.336;2024-01-11T05:15:05;-0.20;99.90
12384;DHT22;6256;63.808;20.336;2024-01-11T05:17:31;-0.20;99.90
12384;DHT22;6256;63.808;20.336;2024-01-11T05:19:57;-0.20;99.90
12384;DHT22;6256;63.808;20.336;2024-01-11T05:22:23;-0.20;99.90
12384;DHT22;6256;63.808;20.336;2024-01-11T05:24:48;-0.20;99.90
12384;DHT22;6256;63.808;20.336;2024-01-11T05:27:14;-0.20;99.90
12384;DHT22;6256;63.808;20.336;2024-01-11T05:29:40;-0.20;99.90
12384;DHT22;6256;63.808;20.336;2024-01-11T05:32:06;-0.20;99.90
12384;DHT22;6256;63.808;20.336;2024-01-11T05:34:31;-0.20;99.90
12384;DHT22;6256;63.808;20.336;2024-01-11T05:36:57;-0.20;99.90
12384;DHT22;6256;63.808;20.336;2024-01-11T05:39:23;-0.20;99.90
12384;DHT22;6256;63.808;20.336;2024-01-11T05:41:48;-0.20;99.90
12384;DHT22;6256;63.808;20.336;2024-01-11T05:44:14;-0.20;99.90
12384;DHT22;6256;63.808;20.336;2024-01-11T05:46:40;-0.30;99.90
12384;DHT22;6256;63.808;20.336;2024-01-11T05:49:08;-0.30;99.90
12384;DHT22;6256;63.808;20.336;2024-01-11T05:51:33;-0.30;99.90
12384;DHT22;6256;63.808;20.336;2024-01-11T05:53:59;-0.30;99.90
12384;DHT22;6256;63.808;20.336;2024-01-11T05:56:25;-0.30;99.90
12384;DHT22;6256;63.808;20.336;2024-01-11T05:58:50;-0.30;99.90
12384;DHT22;6256;63.808;20.336;2024-01-11T06:01:16;-0.20;99.90
12384;DHT22;6256;63.808;20.336;2024-01-11T06:03:42;-0.30;99.90
12384;DHT22;6256;63.808;20.336;2024-01-11T06:06:08;-0.30;99.90
12384;DHT22;6256;63.808;20.336;2024-01-11T06:08:33;-0.30;99.90
12384;DHT22;6256;63.808;20.336;2024-01-11T06:10:59;-0.30;99.90
12384;DHT22;6256;63.808;20.336;2024-01-11T06:13:25;-0.30;99.90
12384;DHT22;6256;63.808;20.336;2024-01-11T06:15:51;-0.40;99.90
12384;DHT22;6256;63.808;20.336;2024-01-11T06:18:17;-0.30;99.90
12384;DHT22;6256;63.808;20.336;2024-01-11T06:20:42;-0.40;99.90
12384;DHT22;6256;63.808;20.336;2024-01-11T06:23:08;-0.30;99.90
12384;DHT22;6256;63.808;20.336;2024-01-11T06:25:34;-0.30;99.90
12384;DHT22;6256;63.808;20.336;2024-01-11T06:28:00;-0.30;99.90
12384;DHT22;6256;63.808;20.336;2024-01-11T06:30:25;-0.40;99.90
12384;DHT22;6256;63.808;20.336;2024-01-11T06:32:51;-0.40;99.90
12384;DHT22;6256;63.808;20.336;2024-01-11T06:35:17;-0.30;99.90
12384;DHT22;6256;63.808;20.336;2024-01-11T06:37:43;-0.50;99.90
12384;DHT22;6256;63.808;20.336;2024-01-11T06:40:09;-0.50;99.90
12384;DHT22;6256;63.808;20.336;2024-01-11T06:42:34;-0.50;99.90
12384;DHT22;6256;63.808;20.336;2024-01-11T06:45:00;-0.60;99.90
12384;DHT22;6256;63.808;20.336;2024-01-11T06:47:26;-0.60;99.90
12384;DHT22;6256;63.808;20.336;2024-01-11T06:49:53;-0.60;99.90
12384;DHT22;6256;63.808;20.336;2024-01-11T06:52:18;-0.50;99.90
12384;DHT22;6256;63.808;20.336;2024-01-11T06:54:45;-0.60;99.90
12384;DHT22;6256;63.808;20.336;2024-01-11T06:57:12;-0.70;99.90
12384;DHT22;6256;63.808;20.336;2024-01-11T06:59:37;-0.80;99.90
12384;DHT22;6256;63.808;20.336;2024-01-11T07:02:03;-0.80;99.90
12384;DHT22;6256;63.808;20.336;2024-01-11T07:04:29;-0.80;99.90
12384;DHT22;6256;63.808;20.336;2024-01-11T07:06:55;-0.80;99.90
12384;DHT22;6256;63.808;20.336;2024-01-11T07:09:20;-0.80;99.90
12384;DHT22;6256;63.808;20.336;2024-01-11T07:11:46;-0.70;99.90
12384;DHT22;6256;63.808;20.336;2024-01-11T07:14:12;-0.80;99.90
12384;DHT22;6256;63.808;20.336;2024-01-11T07:16:38;-0.80;99.90
12384;DHT22;6256;63.808;20.336;2024-01-11T07:19:03;-0.80;99.90
12384;DHT22;6256;63.808;20.336;2024-01-11T07:21:29;-0.80;99.90
12384;DHT22;6256;63.808;20.336;2024-01-11T07:23:57;-0.80;99.90
12384;DHT22;6256;63.808;20.336;2024-01-11T07:26:23;-0.80;99.90
12384;DHT22;6256;63.808;20.336;2024-01-11T07:28:49;-0.80;99.90
12384;DHT22;6256;63.808;20.336;2024-01-11T07:31:15;-0.90;99.90
12384;DHT22;6256;63.808;20.336;2024-01-11T07:33:41;-0.90;99.90
12384;DHT22;6256;63.808;20.336;2024-01-11T07:36:07;-0.90;99.90
12384;DHT22;6256;63.808;20.336;2024-01-11T07:38:35;-0.90;99.90
12384;DHT22;6256;63.808;20.336;2024-01-11T07:41:01;-0.90;99.90
12384;DHT22;6256;63.808;20.336;2024-01-11T07:43:27;-0.90;99.90
12384;DHT22;6256;63.808;20.336;2024-01-11T07:45:54;-0.90;99.90
12384;DHT22;6256;63.808;20.336;2024-01-11T07:48:22;-1.00;99.90
12384;DHT22;6256;63.808;20.336;2024-01-11T07:50:48;-1.00;99.90
12384;DHT22;6256;63.808;20.336;2024-01-11T07:53:14;-1.00;99.90
12384;DHT22;6256;63.808;20.336;2024-01-11T07:55:40;-1.00;99.90
12384;DHT22;6256;63.808;20.336;2024-01-11T07:58:06;-1.00;99.90
12384;DHT22;6256;63.808;20.336;2024-01-11T08:00:32;-1.00;99.90
12384;DHT22;6256;63.808;20.336;2024-01-11T08:02:59;-1.10;99.90
12384;DHT22;6256;63.808;20.336;2024-01-11T08:05:25;-1.00;99.90
12384;DHT22;6256;63.808;20.336;2024-01-11T08:07:51;-1.10;99.90
12384;DHT22;6256;63.808;20.336;2024-01-11T08:10:17;-1.10;99.90
12384;DHT22;6256;63.808;20.336;2024-01-11T08:12:43;-1.00;99.90
12384;DHT22;6256;63.808;20.336;2024-01-11T08:15:09;-1.10;99.90
12384;DHT22;6256;63.808;20.336;2024-01-11T08:17:47;-1.10;99.90
12384;DHT22;6256;63.808;20.336;2024-01-11T08:20:12;-1.10;99.90
12384;DHT22;6256;63.808;20.336;2024-01-11T08:22:42;-1.20;99.90
12384;DHT22;6256;63.808;20.336;2024-01-11T08:25:14;-1.20;99.90
12384;DHT22;6256;63.808;20.336;2024-01-11T08:27:40;-1.20;99.90
12384;DHT22;6256;63.808;20.336;2024-01-11T08:30:06;-1.20;99.90
12384;DHT22;6256;63.808;20.336;2024-01-11T08:32:33;-1.20;99.90
12384;DHT22;6256;63.808;20.336;2024-01-11T08:35:05;-1.20;99.90
12384;DHT22;6256;63.808;20.336;2024-01-11T08:37:31;-1.30;99.90
12384;DHT22;6256;63.808;20.336;2024-01-11T08:39:57;-1.30;99.90
12384;DHT22;6256;63.808;20.336;2024-01-11T08:42:23;-1.40;99.90
12384;DHT22;6256;63.808;20.336;2024-01-11T08:44:49;-1.40;99.90
12384;DHT22;6256;63.808;20.336;2024-01-11T08:47:14;-1.40;99.90
12384;DHT22;6256;63.808;20.336;2024-01-11T08:49:40;-1.40;99.90
12384;DHT22;6256;63.808;20.336;2024-01-11T08:52:08;-1.50;99.90
12384;DHT22;6256;63.808;20.336;2024-01-11T08:54:34;-1.40;99.90
12384;DHT22;6256;63.808;20.336;2024-01-11T08:57:00;-1.50;99.90
12384;DHT22;6256;63.808;20.336;2024-01-11T08:59:26;-1.50;99.90
12384;DHT22;6256;63.808;20.336;2024-01-11T09:01:52;-1.50;99.90
12384;DHT22;6256;63.808;20.336;2024-01-11T09:04:18;-1.50;99.90
12384;DHT22;6256;63.808;20.336;2024-01-11T09:06:44;-1.50;99.90
12384;DHT22;6256;63.808;20.336;2024-01-11T09:09:13;-1.50;99.90
12384;DHT22;6256;63.808;20.336;2024-01-11T09:11:39;-1.50;99.90
12384;DHT22;6256;63.808;20.336;2024-01-11T09:14:08;-1.50;99.90
12384;DHT22;6256;63.808;20.336;2024-01-11T09:16:36;-1.50;99.90
12384;DHT22;6256;63.808;20.336;2024-01-11T09:19:05;-1.50;99.90
12384;DHT22;6256;63.808;20.336;2024-01-11T09:21:31;-1.40;99.90
12384;DHT22;6256;63.808;20.336;2024-01-11T09:23:56;-1.40;99.90
12384;DHT22;6256;63.808;20.336;2024-01-11T09:26:22;-1.40;99.90
12384;DHT22;6256;63.808;20.336;2024-01-11T09:28:48;-1.40;99.90
12384;DHT22;6256;63.808;20.336;2024-01-11T09:31:14;-1.50;99.90
12384;DHT22;6256;63.808;20.336;2024-01-11T09:33:40;-1.50;99.90
12384;DHT22;6256;63.808;20.336;2024-01-11T09:36:08;-1.60;99.90
12384;DHT22;6256;63.808;20.336;2024-01-11T09:38:33;-1.60;99.90
12384;DHT22;6256;63.808;20.336;2024-01-11T09:41:08;-1.70;99.90
12384;DHT22;6256;63.808;20.336;2024-01-11T09:43:34;-1.70;99.90
12384;DHT22;6256;63.808;20.336;2024-01-11T09:46:04;-1.70;99.90
12384;DHT22;6256;63.808;20.336;2024-01-11T09:48:36;-1.70;99.90
12384;DHT22;6256;63.808;20.336;2024-01-11T09:51:03;-1.70;99.90
12384;DHT22;6256;63.808;20.336;2024-01-11T09:53:32;-1.70;99.90
12384;DHT22;6256;63.808;20.336;2024-01-11T09:55:59;-1.60;99.90
12384;DHT22;6256;63.808;20.336;2024-01-11T09:58:25;-1.50;99.90
12384;DHT22;6256;63.808;20.336;2024-01-11T10:00:55;-1.40;99.90
12384;DHT22;6256;63.808;20.336;2024-01-11T10:03:25;-1.30;99.90
12384;DHT22;6256;63.808;20.336;2024-01-11T10:05:58;-1.20;99.90
12384;DHT22;6256;63.808;20.336;2024-01-11T10:08:25;-1.00;99.90
12384;DHT22;6256;63.808;20.336;2024-01-11T10:10:51;-1.00;99.90
12384;DHT22;6256;63.808;20.336;2024-01-11T10:13:17;-1.00;99.90
12384;DHT22;6256;63.808;20.336;2024-01-11T10:15:43;-0.90;99.90
12384;DHT22;6256;63.808;20.336;2024-01-11T10:18:10;-0.90;99.90
12384;DHT22;6256;63.808;20.336;2024-01-11T10:20:36;-0.80;99.90
12384;DHT22;6256;63.808;20.336;2024-01-11T10:23:02;-0.80;99.90
12384;DHT22;6256;63.808;20.336;2024-01-11T10:25:29;-0.80;99.90
12384;DHT22;6256;63.808;20.336;2024-01-11T10:27:54;-0.80;99.90
12384;DHT22;6256;63.808;20.336;2024-01-11T10:30:20;-0.70;99.90
12384;DHT22;6256;63.808;20.336;2024-01-11T10:32:48;-0.70;99.90
12384;DHT22;6256;63.808;20.336;2024-01-11T10:35:14;-0.70;99.90
12384;DHT22;6256;63.808;20.336;2024-01-11T10:37:43;-0.70;99.90
12384;DHT22;6256;63.808;20.336;2024-01-11T10:40:10;-0.80;99.90
12384;DHT22;6256;63.808;20.336;2024-01-11T10:42:49;-0.80;99.90
12384;DHT22;6256;63.808;20.336;2024-01-11T10:45:19;-0.80;99.90
12384;DHT22;6256;63.808;20.336;2024-01-11T10:50:24;-0.70;99.90
12384;DHT22;6256;63.808;20.336;2024-01-11T10:53:28;-0.70;99.90
12384;DHT22;6256;63.808;20.336;2024-01-11T10:55:58;-0.70;99.90
12384;DHT22;6256;63.808;20.336;2024-01-11T10:58:26;-0.70;99.90
12384;DHT22;6256;63.808;20.336;2024-01-11T11:00:53;-0.70;99.90
12384;DHT22;6256;63.808;20.336;2024-01-11T11:03:23;-0.70;99.90
12384;DHT22;6256;63.808;20.336;2024-01-11T11:05:53;-0.70;99.90
12384;DHT22;6256;63.808;20.336;2024-01-11T11:08:19;-0.70;99.90
12384;DHT22;6256;63.808;20.336;2024-01-11T11:10:45;-0.80;99.90
12384;DHT22;6256;63.808;20.336;2024-01-11T11:13:14;-0.70;99.90
12384;DHT22;6256;63.808;20.336;2024-01-11T11:15:45;-0.70;99.90
12384;DHT22;6256;63.808;20.336;2024-01-11T11:18:13;-0.70;99.90
12384;DHT22;6256;63.808;20.336;2024-01-11T11:20:40;-0.70;99.90
12384;DHT22;6256;63.808;20.336;2024-01-11T11:23:08;-0.70;99.90
12384;DHT22;6256;63.808;20.336;2024-01-11T11:25:44;-0.80;99.90
12384;DHT22;6256;63.808;20.336;2024-01-11T11:28:15;-0.90;99.90
12384;DHT22;6256;63.808;20.336;2024-01-11T11:30:42;-1.00;99.90
12384;DHT22;6256;63.808;20.336;2024-01-11T11:33:17;-1.00;99.90
12384;DHT22;6256;63.808;20.336;2024-01-11T11:35:43;-1.10;99.90
12384;DHT22;6256;63.808;20.336;2024-01-11T11:38:31;-1.10;99.90
12384;DHT22;6256;63.808;20.336;2024-01-11T11:40:58;-1.10;99.90
12384;DHT22;6256;63.808;20.336;2024-01-11T11:43:26;-1.10;99.90
12384;DHT22;6256;63.808;20.336;2024-01-11T11:45:53;-1.10;99.90
12384;DHT22;6256;63.808;20.336;2024-01-11T11:51:08;-1.10;99.90
12384;DHT22;6256;63.808;20.336;2024-01-11T11:53:35;-1.20;99.90
12384;DHT22;6256;63.808;20.336;2024-01-11T11:56:01;-1.20;99.90
12384;DHT22;6256;63.808;20.336;2024-01-11T11:58:31;-1.10;99.90
12384;DHT22;6256;63.808;20.336;2024-01-11T12:00:58;-1.20;99.90
12384;DHT22;6256;63.808;20.336;2024-01-11T12:03:32;-1.10;99.90
12384;DHT22;6256;63.808;20.336;2024-01-11T12:05:58;-1.20;99.90
12384;DHT22;6256;63.808;20.336;2024-01-11T12:08:24;-1.20;99.90
12384;DHT22;6256;63.808;20.336;2024-01-11T12:10:51;-1.30;99.90
12384;DHT22;6256;63.808;20.336;2024-01-11T12:13:17;-1.30;99.90
12384;DHT22;6256;63.808;20.336;2024-01-11T12:15:43;-1.40;99.90
12384;DHT22;6256;63.808;20.336;2024-01-11T12:18:08;-1.40;99.90
12384;DHT22;6256;63.808;20.336;2024-01-11T12:20:34;-1.40;99.90
12384;DHT22;6256;63.808;20.336;2024-01-11T12:23:00;-1.40;99.90
12384;DHT22;6256;63.808;20.336;2024-01-11T12:25:28;-1.50;99.90
12384;DHT22;6256;63.808;20.336;2024-01-11T12:27:54;-1.50;99.90
12384;DHT22;6256;63.808;20.336;2024-01-11T12:30:22;-1.50;99.90
12384;DHT22;6256;63.808;20.336;2024-01-11T12:32:49;-1.60;99.90
12384;DHT22;6256;63.808;20.336;2024-01-11T12:35:16;-1.70;99.90
12384;DHT22;6256;63.808;20.336;2024-01-11T12:37:55;-1.70;99.90
12384;DHT22;6256;63.808;20.336;2024-01-11T12:40:24;-1.80;99.90
12384;DHT22;6256;63.808;20.336;2024-01-11T12:42:50;-1.80;99.90
12384;DHT22;6256;63.808;20.336;2024-01-11T12:45:16;-1.80;99.90
12384;DHT22;6256;63.808;20.336;2024-01-11T12:47:43;-1.80;99.90
12384;DHT22;6256;63.808;20.336;2024-01-11T12:50:10;-1.90;99.90
12384;DHT22;6256;63.808;20.336;2024-01-11T12:52:40;-1.90;99.90
12384;DHT22;6256;63.808;20.336;2024-01-11T12:55:08;-2.00;99.90
12384;DHT22;6256;63.808;20.336;2024-01-11T12:57:43;-2.00;99.90
12384;DHT22;6256;63.808;20.336;2024-01-11T13:00:18;-2.00;99.90
12384;DHT22;6256;63.808;20.336;2024-01-11T13:02:44;-2.10;99.90
12384;DHT22;6256;63.808;20.336;2024-01-11T13:05:11;-2.20;99.90
12384;DHT22;6256;63.808;20.336;2024-01-11T13:07:37;-2.30;99.90
12384;DHT22;6256;63.808;20.336;2024-01-11T13:10:04;-2.30;99.90
12384;DHT22;6256;63.808;20.336;2024-01-11T13:12:30;-2.40;99.90
12384;DHT22;6256;63.808;20.336;2024-01-11T13:14:56;-2.40;99.90
12384;DHT22;6256;63.808;20.336;2024-01-11T13:17:22;-2.50;99.90
12384;DHT22;6256;63.808;20.336;2024-01-11T13:19:48;-2.60;99.90
12384;DHT22;6256;63.808;20.336;2024-01-11T13:22:13;-2.70;99.90
12384;DHT22;6256;63.808;20.336;2024-01-11T13:24:39;-2.80;99.90
12384;DHT22;6256;63.808;20.336;2024-01-11T13:27:05;-2.80;99.90
12384;DHT22;6256;63.808;20.336;2024-01-11T13:29:30;-2.90;99.90
12384;DHT22;6256;63.808;20.336;2024-01-11T13:31:56;-3.00;99.90
12384;DHT22;6256;63.808;20.336;2024-01-11T13:34:22;-3.10;99.90
12384;DHT22;6256;63.808;20.336;2024-01-11T13:36:48;-3.20;99.90
12384;DHT22;6256;63.808;20.336;2024-01-11T13:39:14;-3.20;99.90
12384;DHT22;6256;63.808;20.336;2024-01-11T13:41:43;-3.30;99.90
12384;DHT22;6256;63.808;20.336;2024-01-11T13:44:09;-3.40;99.90
12384;DHT22;6256;63.808;20.336;2024-01-11T13:46:35;-3.40;99.90
12384;DHT22;6256;63.808;20.336;2024-01-11T13:49:01;-3.50;99.90
12384;DHT22;6256;63.808;20.336;2024-01-11T13:51:28;-3.50;99.90
12384;DHT22;6256;63.808;20.336;2024-01-11T13:53:54;-3.50;99.90
12384;DHT22;6256;63.808;20.336;2024-01-11T13:56:19;-3.60;99.90
12384;DHT22;6256;63.808;20.336;2024-01-11T13:58:45;-3.60;99.90
12384;DHT22;6256;63.808;20.336;2024-01-11T14:01:12;-3.60;99.90
12384;DHT22;6256;63.808;20.336;2024-01-11T14:03:39;-3.60;99.90
12384;DHT22;6256;63.808;20.336;2024-01-11T14:06:05;-3.70;99.90
12384;DHT22;6256;63.808;20.336;2024-01-11T14:08:30;-3.70;99.90
12384;DHT22;6256;63.808;20.336;2024-01-11T14:10:56;-3.70;99.90
12384;DHT22;6256;63.808;20.336;2024-01-11T14:13:22;-3.80;99.90
12384;DHT22;6256;63.808;20.336;2024-01-11T14:15:48;-3.80;99.90
12384;DHT22;6256;63.808;20.336;2024-01-11T14:18:16;-3.80;99.90
12384;DHT22;6256;63.808;20.336;2024-01-11T14:20:42;-3.80;99.90
12384;DHT22;6256;63.808;20.336;2024-01-11T14:23:08;-3.80;99.90
12384;DHT22;6256;63.808;20.336;2024-01-11T14:25:34;-3.80;99.90
12384;DHT22;6256;63.808;20.336;2024-01-11T14:28:00;-3.90;99.90
12384;DHT22;6256;63.808;20.336;2024-01-11T14:30:26;-3.90;99.90
12384;DHT22;6256;63.808;20.336;2024-01-11T14:32:52;-4.00;99.90
12384;DHT22;6256;63.808;20.336;2024-01-11T14:35:18;-4.00;99.90
12384;DHT22;6256;63.808;20.336;2024-01-11T14:37:44;-4.00;99.90
12384;DHT22;6256;63.808;20.336;2024-01-11T14:40:10;-4.00;99.90
12384;DHT22;6256;63.808;20.336;2024-01-11T14:42:36;-4.00;99.90
12384;DHT22;6256;63.808;20.336;2024-01-11T14:45:04;-4.00;99.90
12384;DHT22;6256;63.808;20.336;2024-01-11T14:47:29;-4.00;99.90
12384;DHT22;6256;63.808;20.336;2024-01-11T14:49:57;-4.00;99.90
12384;DHT22;6256;63.808;20.336;2024-01-11T14:52:22;-4.00;99.90
12384;DHT22;6256;63.808;20.336;2024-01-11T14:54:48;-3.90;99.90
12384;DHT22;6256;63.808;20.336;2024-01-11T14:57:14;-3.90;99.90
12384;DHT22;6256;63.808;20.336;2024-01-11T14:59:40;-3.90;99.90
12384;DHT22;6256;63.808;20.336;2024-01-11T15:02:06;-3.80;99.90
12384;DHT22;6256;63.808;20.336;2024-01-11T15:04:32;-3.80;99.90
12384;DHT22;6256;63.808;20.336;2024-01-11T15:06:57;-3.80;99.90
12384;DHT22;6256;63.808;20.336;2024-01-11T15:09:23;-3.80;99.90
12384;DHT22;6256;63.808;20.336;2024-01-11T15:11:49;-3.70;99.90
12384;DHT22;6256;63.808;20.336;2024-01-11T15:14:15;-3.70;99.90
12384;DHT22;6256;63.808;20.336;2024-01-11T15:16:41;-3.70;99.90
12384;DHT22;6256;63.808;20.336;2024-01-11T15:19:09;-3.60;99.90
12384;DHT22;6256;63.808;20.336;2024-01-11T15:21:35;-3.60;99.90
12384;DHT22;6256;63.808;20.336;2024-01-11T15:24:01;-3.60;99.90
12384;DHT22;6256;63.808;20.336;2024-01-11T15:26:27;-3.70;99.90
12384;DHT22;6256;63.808;20.336;2024-01-11T15:28:53;-3.70;99.90
12384;DHT22;6256;63.808;20.336;2024-01-11T15:31:19;-3.70;99.90
12384;DHT22;6256;63.808;20.336;2024-01-11T15:33:44;-3.60;99.90
12384;DHT22;6256;63.808;20.336;2024-01-11T15:36:11;-3.60;99.90
12384;DHT22;6256;63.808;20.336;2024-01-11T15:38:40;-3.60;99.90